createdAt,value
2023-01-13T00:01:25.819Z,99407.28
2023-01-13T00:03:54.881Z,99402.16
2023-01-13T00:06:25.903Z,99393.91
2023-01-13T00:08:58.012Z,99385.06
2023-01-13T00:11:26.524Z,99387.50
2023-01-13T00:13:54.291Z,99395.56
2023-01-13T00:16:22.527Z,99382.59
2023-01-13T00:18:51.390Z,99384.22
2023-01-13T00:21:23.128Z,99377.22
2023-01-13T00:23:52.942Z,99384.44
2023-01-13T00:26:23.317Z,99360.75
2023-01-13T00:28:51.770Z,99372.72
2023-01-13T00:31:21.622Z,99368.78
2023-01-13T00:33:51.108Z,99360.75
2023-01-13T00:36:22.876Z,99362.63
2023-01-13T00:38:51.012Z,99349.84
2023-01-13T00:41:20.145Z,99346.75
2023-01-13T00:43:49.181Z,99355.63
2023-01-13T00:46:18.968Z,99354.59
2023-01-13T00:48:47.121Z,99345.13
2023-01-13T00:51:17.509Z,99347.78
2023-01-13T00:53:48.231Z,99347.59
2023-01-13T00:56:34.128Z,99339.56
2023-01-13T00:59:09.036Z,99337.69
2023-01-13T01:01:36.991Z,99334.59
2023-01-13T01:04:05.204Z,99318.91
2023-01-13T01:06:33.085Z,99327.59
2023-01-13T01:09:02.171Z,99330.88
2023-01-13T01:11:32.007Z,99323.00
2023-01-13T01:14:03.131Z,99329.84
2023-01-13T01:16:33.132Z,99333.56
2023-01-13T01:19:03.723Z,99336.00
2023-01-13T01:21:31.855Z,99333.34
2023-01-13T01:24:03.700Z,99328.38
2023-01-13T01:26:33.579Z,99323.00
2023-01-13T01:29:02.533Z,99335.38
2023-01-13T01:31:33.132Z,99326.28
2023-01-13T01:34:02.128Z,99328.34
2023-01-13T01:36:30.384Z,99325.50
2023-01-13T01:39:01.759Z,99323.22
2023-01-13T01:41:33.632Z,99326.31
2023-01-13T01:44:04.408Z,99330.44
2023-01-13T01:46:35.035Z,99327.72
2023-01-13T01:49:11.998Z,99330.03
2023-01-13T01:51:45.038Z,99328.94
2023-01-13T01:54:15.994Z,99320.50
2023-01-13T01:56:47.282Z,99316.00
2023-01-13T01:59:16.063Z,99313.94
2023-01-13T02:01:45.260Z,99308.34
2023-01-13T02:04:16.229Z,99311.50
2023-01-13T02:06:48.198Z,99310.25
2023-01-13T02:09:17.660Z,99302.41
2023-01-13T02:12:04.373Z,99302.00
2023-01-13T02:14:35.256Z,99311.25
2023-01-13T02:17:20.988Z,99306.50
2023-01-13T02:20:25.552Z,99296.63
2023-01-13T02:23:35.044Z,99303.84
2023-01-13T02:26:33.678Z,99301.16
2023-01-13T02:29:33.651Z,99307.94
2023-01-13T02:32:10.138Z,99301.53
2023-01-13T02:34:41.619Z,99301.75
2023-01-13T02:37:15.838Z,99307.50
2023-01-13T02:39:58.773Z,99306.28
2023-01-13T02:42:49.120Z,99294.09
2023-01-13T02:45:21.525Z,99293.50
2023-01-13T02:47:55.902Z,99285.88
2023-01-13T02:50:28.954Z,99284.19
2023-01-13T02:53:00.693Z,99279.22
2023-01-13T02:55:34.117Z,99280.69
2023-01-13T02:58:12.969Z,99274.50
2023-01-13T03:00:41.944Z,99278.84
2023-01-13T03:03:12.987Z,99266.91
2023-01-13T03:05:43.355Z,99278.00
2023-01-13T03:08:39.450Z,99280.88
2023-01-13T03:11:09.625Z,99278.22
2023-01-13T03:13:56.931Z,99281.66
2023-01-13T03:16:31.357Z,99278.41
2023-01-13T03:19:14.755Z,99280.44
2023-01-13T03:21:49.570Z,99273.00
2023-01-13T03:24:21.102Z,99272.34
2023-01-13T03:26:52.679Z,99273.41
2023-01-13T03:29:23.561Z,99280.06
2023-01-13T03:32:00.541Z,99280.88
2023-01-13T03:34:35.672Z,99282.13
2023-01-13T03:37:06.971Z,99278.22
2023-01-13T03:39:38.887Z,99266.22
2023-01-13T03:42:09.833Z,99267.88
2023-01-13T03:44:42.882Z,99272.19
2023-01-13T03:47:18.028Z,99258.19
2023-01-13T03:49:55.597Z,99263.13
2023-01-13T03:52:28.566Z,99251.09
2023-01-13T03:55:01.466Z,99261.22
2023-01-13T03:57:32.385Z,99259.31
2023-01-13T04:00:03.886Z,99260.19
2023-01-13T04:02:42.458Z,99260.00
2023-01-13T04:05:12.613Z,99248.22
2023-01-13T04:07:47.906Z,99255.25
2023-01-13T04:10:19.480Z,99254.81
2023-01-13T04:13:04.228Z,99248.81
2023-01-13T04:15:39.069Z,99240.75
2023-01-13T04:18:18.171Z,99251.50
2023-01-13T04:20:49.841Z,99237.72
2023-01-13T04:23:18.248Z,99224.31
2023-01-13T04:25:46.506Z,99230.63
2023-01-13T04:28:15.171Z,99223.00
2023-01-13T04:30:43.764Z,99209.16
2023-01-13T04:33:12.069Z,99198.69
2023-01-13T04:35:40.467Z,99218.91
2023-01-13T04:38:12.488Z,99209.03
2023-01-13T04:40:40.284Z,99209.00
2023-01-13T04:43:08.356Z,99208.56
2023-01-13T04:45:36.062Z,99207.34
2023-01-13T04:48:04.403Z,99205.75
2023-01-13T04:50:32.468Z,99201.38
2023-01-13T04:53:01.102Z,99199.91
2023-01-13T04:55:31.878Z,99193.53
2023-01-13T04:58:03.318Z,99202.16
2023-01-13T05:00:31.964Z,99198.88
2023-01-13T05:03:02.344Z,99190.50
2023-01-13T05:05:30.935Z,99188.63
2023-01-13T05:07:58.679Z,99202.31
2023-01-13T05:10:26.954Z,99198.28
2023-01-13T05:13:13.619Z,99210.44
2023-01-13T05:15:59.553Z,99207.63
2023-01-13T05:18:27.295Z,99218.63
2023-01-13T05:20:54.933Z,99218.44
2023-01-13T05:23:40.055Z,99227.69
2023-01-13T05:26:08.022Z,99229.38
2023-01-13T05:28:36.915Z,99249.56
2023-01-13T05:31:04.607Z,99251.22
2023-01-13T05:33:33.660Z,99277.16
2023-01-13T05:36:05.796Z,99309.19
2023-01-13T05:38:33.322Z,99295.41
2023-01-13T05:41:18.607Z,99299.16
2023-01-13T05:43:47.611Z,99291.13
2023-01-13T05:46:17.558Z,99303.69
2023-01-13T05:48:45.882Z,99319.97
2023-01-13T05:51:14.188Z,99334.00
2023-01-13T05:53:42.157Z,99334.84
2023-01-13T05:56:11.028Z,99364.50
2023-01-13T05:58:39.028Z,99352.75
2023-01-13T06:01:10.800Z,99357.50
2023-01-13T06:03:38.994Z,99349.91
2023-01-13T06:06:09.944Z,99352.34
2023-01-13T06:08:39.722Z,99339.38
2023-01-13T06:11:07.684Z,99338.72
2023-01-13T06:13:35.420Z,99335.47
2023-01-13T06:16:03.157Z,99330.31
2023-01-13T06:18:32.159Z,99332.16
2023-01-13T06:20:59.697Z,99330.72
2023-01-13T06:23:27.827Z,99331.34
2023-01-13T06:26:05.109Z,99339.13
2023-01-13T06:28:33.180Z,99338.94
2023-01-13T06:31:04.149Z,99350.47
2023-01-13T06:33:37.688Z,99349.66
2023-01-13T06:36:11.355Z,99360.97
2023-01-13T06:38:43.520Z,99364.66
2023-01-13T06:41:11.238Z,99361.78
2023-01-13T06:43:41.336Z,99355.59
2023-01-13T06:46:09.154Z,99359.72
2023-01-13T06:48:38.046Z,99347.38
2023-01-13T06:51:06.171Z,99331.97
2023-01-13T06:53:33.948Z,99329.06
2023-01-13T06:56:01.603Z,99309.72
2023-01-13T06:58:29.270Z,99312.59
2023-01-13T07:01:01.169Z,99331.53
2023-01-13T07:03:28.780Z,99348.78
2023-01-13T07:05:58.639Z,99342.84
2023-01-13T07:08:26.288Z,99327.81
2023-01-13T07:10:54.159Z,99329.47
2023-01-13T07:13:39.890Z,99320.25
2023-01-13T07:16:09.281Z,99334.81
2023-01-13T07:18:37.896Z,99332.94
2023-01-13T07:21:09.160Z,99338.31
2023-01-13T07:23:39.444Z,99338.31
2023-01-13T07:26:08.124Z,99348.78
2023-01-13T07:28:36.237Z,99348.56
2023-01-13T07:31:04.819Z,99358.19
2023-01-13T07:33:33.489Z,99361.69
2023-01-13T07:36:02.825Z,99360.44
2023-01-13T07:38:32.884Z,99345.59
2023-01-13T07:41:22.017Z,99343.38
2023-01-13T07:43:48.807Z,99358.22
2023-01-13T07:46:16.615Z,99366.81
2023-01-13T07:48:44.493Z,99380.75
2023-01-13T07:51:13.444Z,99384.66
2023-01-13T07:53:42.402Z,99382.81
2023-01-13T07:56:10.407Z,99382.97
2023-01-13T07:58:38.651Z,99378.44
2023-01-13T08:01:09.074Z,99384.19
2023-01-13T08:03:37.900Z,99390.66
2023-01-13T08:06:06.265Z,99395.50
2023-01-13T08:08:33.975Z,99399.50
2023-01-13T08:11:08.220Z,99403.44
2023-01-13T08:13:35.984Z,99412.09
2023-01-13T08:16:08.174Z,99414.59
2023-01-13T08:18:38.751Z,99409.06
2023-01-13T08:21:08.559Z,99410.09
2023-01-13T08:23:36.814Z,99409.69
2023-01-13T08:26:11.632Z,99409.50
2023-01-13T08:28:41.160Z,99420.66
2023-01-13T08:31:11.364Z,99413.47
2023-01-13T08:33:39.375Z,99420.88
2023-01-13T08:36:09.699Z,99422.16
2023-01-13T08:38:38.337Z,99434.06
2023-01-13T08:41:11.925Z,99438.81
2023-01-13T08:43:39.734Z,99442.75
2023-01-13T08:46:07.543Z,99449.91
2023-01-13T08:48:36.650Z,99447.66
2023-01-13T08:51:06.553Z,99453.25
2023-01-13T08:53:34.219Z,99455.94
2023-01-13T08:56:02.058Z,99452.22
2023-01-13T08:58:30.945Z,99452.44
2023-01-13T09:00:58.575Z,99450.78
2023-01-13T09:03:26.394Z,99454.94
2023-01-13T09:05:54.021Z,99451.44
2023-01-13T09:08:21.704Z,99461.94
2023-01-13T09:10:49.368Z,99455.94
2023-01-13T09:13:17.052Z,99462.13
2023-01-13T09:15:47.250Z,99473.88
2023-01-13T09:18:17.409Z,99467.03
2023-01-13T09:20:45.250Z,99477.56
2023-01-13T09:23:12.842Z,99468.91
2023-01-13T09:25:40.745Z,99476.31
2023-01-13T09:28:09.010Z,99484.75
2023-01-13T09:30:38.340Z,99478.16
2023-01-13T09:33:25.029Z,99482.69
2023-01-13T09:35:52.677Z,99488.25
2023-01-13T09:38:20.200Z,99502.88
2023-01-13T09:40:50.985Z,99493.81
2023-01-13T09:43:42.194Z,99496.53
2023-01-13T09:46:31.202Z,99499.41
2023-01-13T09:49:06.119Z,99497.16
2023-01-13T09:51:39.665Z,99492.63
2023-01-13T09:54:15.747Z,99498.97
2023-01-13T09:56:43.585Z,99507.84
2023-01-13T09:59:12.612Z,99502.69
2023-01-13T10:01:52.726Z,99505.81
2023-01-13T10:04:21.738Z,99514.69
2023-01-13T10:06:56.464Z,99524.56
2023-01-13T10:09:31.444Z,99519.19
2023-01-13T10:12:19.147Z,99512.81
2023-01-13T10:14:53.486Z,99516.69
2023-01-13T10:17:28.150Z,99508.88
2023-01-13T10:20:04.694Z,99497.97
2023-01-13T10:22:48.520Z,99500.84
2023-01-13T10:25:26.035Z,99490.78
2023-01-13T10:27:56.516Z,99489.53
2023-01-13T10:30:31.151Z,99482.94
2023-01-13T10:33:11.203Z,99478.19
2023-01-13T10:36:00.472Z,99478.00
2023-01-13T10:38:31.327Z,99479.63
2023-01-13T10:41:01.057Z,99473.88
2023-01-13T10:43:29.719Z,99486.25
2023-01-13T10:46:01.171Z,99483.31
2023-01-13T10:48:38.230Z,99478.72
2023-01-13T10:51:20.956Z,99473.50
2023-01-13T10:53:55.507Z,99482.66
2023-01-13T10:56:26.127Z,99476.63
2023-01-13T10:59:09.720Z,99471.28
2023-01-13T11:01:37.647Z,99469.03
2023-01-13T11:04:27.083Z,99470.59
2023-01-13T11:06:59.863Z,99470.09
2023-01-13T11:09:36.548Z,99477.47
2023-01-13T11:12:05.391Z,99475.13
2023-01-13T11:14:42.019Z,99466.34
2023-01-13T11:17:33.692Z,99463.94
2023-01-13T11:20:13.572Z,99457.28
2023-01-13T11:22:46.691Z,99470.44
2023-01-13T11:25:20.644Z,99465.78
2023-01-13T11:27:53.140Z,99467.03
2023-01-13T11:30:29.580Z,99477.75
2023-01-13T11:33:10.874Z,99467.09
2023-01-13T11:35:43.206Z,99483.59
2023-01-13T11:38:15.596Z,99476.41
2023-01-13T11:40:47.447Z,99476.72
2023-01-13T11:43:21.669Z,99487.03
2023-01-13T11:45:53.465Z,99490.66
2023-01-13T11:48:26.898Z,99493.94
2023-01-13T11:51:01.039Z,99482.59
2023-01-13T11:53:41.102Z,99490.16
2023-01-13T11:56:26.895Z,99494.47
2023-01-13T11:59:18.477Z,99487.38
2023-01-13T12:02:03.239Z,99490.84
2023-01-13T12:04:42.129Z,99490.31
2023-01-13T12:07:18.326Z,99477.69
2023-01-13T12:10:03.199Z,99481.13
2023-01-13T12:12:44.251Z,99485.38
2023-01-13T12:15:53.893Z,99485.50
2023-01-13T12:18:41.991Z,99483.81
2023-01-13T12:21:21.027Z,99482.56
2023-01-13T12:23:58.903Z,99479.72
2023-01-13T12:26:32.871Z,99481.63
2023-01-13T12:29:05.702Z,99508.06
2023-01-13T12:31:36.652Z,99496.78
2023-01-13T12:34:23.151Z,99494.06
2023-01-13T12:36:59.656Z,99486.63
2023-01-13T12:39:35.364Z,99486.25
2023-01-13T12:42:33.615Z,99477.50
2023-01-13T12:45:32.813Z,99458.25
2023-01-13T12:48:01.828Z,99466.34
2023-01-13T12:50:42.055Z,99480.81
2023-01-13T12:53:31.988Z,99479.16
2023-01-13T12:56:35.415Z,99482.22
2023-01-13T12:59:35.597Z,99480.44
2023-01-13T13:02:32.745Z,99484.34
2023-01-13T13:05:37.313Z,99475.69
2023-01-13T13:08:14.482Z,99483.50
2023-01-13T13:10:55.965Z,99487.28
2023-01-13T13:13:42.135Z,99480.16
2023-01-13T13:16:47.521Z,99474.56
2023-01-13T13:19:44.933Z,99471.94
2023-01-13T13:22:38.262Z,99464.19
2023-01-13T13:25:22.376Z,99478.72
2023-01-13T13:28:00.320Z,99478.78
2023-01-13T13:30:31.033Z,99482.53
2023-01-13T13:33:13.556Z,99487.47
2023-01-13T13:36:00.096Z,99491.41
2023-01-13T13:39:06.218Z,99521.47
2023-01-13T13:42:06.204Z,99529.06
2023-01-13T13:44:55.079Z,99540.19
2023-01-13T13:47:22.964Z,99568.91
2023-01-13T13:49:54.523Z,99576.78
2023-01-13T13:52:26.486Z,99557.19
2023-01-13T13:54:59.066Z,99566.53
2023-01-13T13:57:33.959Z,99570.88
2023-01-13T14:00:01.856Z,99573.84
2023-01-13T14:02:31.240Z,99583.78
2023-01-13T14:05:20.480Z,99585.22
2023-01-13T14:07:51.172Z,99588.28
2023-01-13T14:10:22.028Z,99594.69
2023-01-13T14:12:49.701Z,99592.78
2023-01-13T14:15:26.308Z,99591.34
2023-01-13T14:17:54.133Z,99582.69
2023-01-13T14:20:23.152Z,99591.81
2023-01-13T14:22:53.464Z,99606.56
2023-01-13T14:25:33.156Z,99599.22
2023-01-13T14:28:17.225Z,99614.97
2023-01-13T14:30:45.452Z,99617.53
2023-01-13T14:33:17.217Z,99615.56
2023-01-13T14:36:21.831Z,99630.34
2023-01-13T14:39:11.951Z,99620.78
2023-01-13T14:41:47.083Z,99628.97
2023-01-13T14:44:23.100Z,99633.13
2023-01-13T14:46:51.599Z,99628.75
2023-01-13T14:49:28.000Z,99632.41
2023-01-13T14:52:05.771Z,99637.59
2023-01-13T14:54:50.195Z,99641.03
2023-01-13T14:57:27.554Z,99642.50
2023-01-13T15:00:04.183Z,99637.03
2023-01-13T15:02:39.345Z,99644.97
2023-01-13T15:05:38.248Z,99650.72
2023-01-13T15:08:26.867Z,99662.91
2023-01-13T15:10:59.964Z,99667.78
2023-01-13T15:13:35.630Z,99660.38
2023-01-13T15:16:08.032Z,99673.28
2023-01-13T15:18:39.993Z,99666.78
2023-01-13T15:21:08.044Z,99674.25
2023-01-13T15:23:36.050Z,99678.38
2023-01-13T15:26:16.857Z,99684.81
2023-01-13T15:28:44.528Z,99691.19
2023-01-13T15:31:12.088Z,99693.59
2023-01-13T15:33:40.018Z,99705.19
2023-01-13T15:36:18.316Z,99712.59
2023-01-13T15:38:45.985Z,99711.75
2023-01-13T15:41:14.866Z,99712.97
2023-01-13T15:44:00.075Z,99723.63
2023-01-13T15:46:40.458Z,99716.44
2023-01-13T15:49:14.911Z,99727.19
2023-01-13T15:51:44.439Z,99727.53
2023-01-13T15:54:12.660Z,99724.88
2023-01-13T15:56:42.538Z,99734.47
2023-01-13T15:59:17.356Z,99728.16
2023-01-13T16:01:45.457Z,99740.09
2023-01-13T16:04:13.207Z,99748.13
2023-01-13T16:06:40.822Z,99746.97
2023-01-13T16:09:08.713Z,99745.28
2023-01-13T16:11:36.244Z,99741.72
2023-01-13T16:14:05.154Z,99749.50
2023-01-13T16:16:32.909Z,99753.84
2023-01-13T16:19:00.681Z,99753.19
2023-01-13T16:21:28.219Z,99755.22
2023-01-13T16:23:55.876Z,99758.38
2023-01-13T16:26:25.267Z,99759.94
2023-01-13T16:28:54.584Z,99763.88
2023-01-13T16:31:30.473Z,99773.56
2023-01-13T16:33:59.123Z,99783.69
2023-01-13T16:36:27.539Z,99800.34
2023-01-13T16:38:55.133Z,99792.09
2023-01-13T16:41:24.800Z,99796.81
2023-01-13T16:43:53.030Z,99796.47
2023-01-13T16:46:23.376Z,99794.81
2023-01-13T16:48:53.281Z,99809.97
2023-01-13T16:51:21.565Z,99810.50
2023-01-13T16:53:49.751Z,99811.75
2023-01-13T16:56:28.661Z,99810.75
2023-01-13T16:58:58.372Z,99819.97
2023-01-13T17:01:28.169Z,99830.41
2023-01-13T17:03:58.265Z,99832.38
2023-01-13T17:06:30.070Z,99846.91
2023-01-13T17:09:01.848Z,99850.75
2023-01-13T17:11:29.390Z,99859.13
2023-01-13T17:13:56.956Z,99861.41
2023-01-13T17:16:26.069Z,99857.72
2023-01-13T17:18:54.484Z,99867.69
2023-01-13T17:21:23.443Z,99866.75
2023-01-13T17:23:51.525Z,99872.00
2023-01-13T17:26:32.401Z,99868.94
2023-01-13T17:29:01.085Z,99881.38
2023-01-13T17:31:29.660Z,99876.88
2023-01-13T17:33:57.702Z,99881.19
2023-01-13T17:36:26.638Z,99883.72
2023-01-13T17:38:55.454Z,99887.75
2023-01-13T17:41:23.795Z,99884.16
2023-01-13T17:43:52.265Z,99889.38
2023-01-13T17:46:20.644Z,99890.81
2023-01-13T17:48:48.348Z,99895.06
2023-01-13T17:51:17.393Z,99908.31
2023-01-13T17:53:46.571Z,99910.91
2023-01-13T17:56:16.870Z,99907.59
2023-01-13T17:58:45.369Z,99910.56
2023-01-13T18:01:15.622Z,99909.38
2023-01-13T18:03:43.659Z,99918.41
2023-01-13T18:06:16.025Z,99907.44
2023-01-13T18:08:43.747Z,99913.44
2023-01-13T18:11:13.016Z,99919.50
2023-01-13T18:13:42.011Z,99920.16
2023-01-13T18:16:11.579Z,99923.44
2023-01-13T18:18:40.277Z,99930.56
2023-01-13T18:21:26.183Z,99931.13
2023-01-13T18:24:11.760Z,99943.47
2023-01-13T18:26:58.579Z,99951.47
2023-01-13T18:29:26.285Z,99948.25
2023-01-13T18:31:53.899Z,99957.28
2023-01-13T18:34:21.678Z,99955.78
2023-01-13T18:36:49.317Z,99955.16
2023-01-13T18:39:17.886Z,99952.22
2023-01-13T18:42:04.502Z,99959.66
2023-01-13T18:44:32.046Z,99963.25
2023-01-13T18:46:59.581Z,99964.81
2023-01-13T18:49:27.964Z,99976.00
2023-01-13T18:51:55.568Z,99966.19
2023-01-13T18:54:23.642Z,99969.88
2023-01-13T18:56:55.194Z,99964.22
2023-01-13T18:59:22.761Z,99983.28
2023-01-13T19:01:50.528Z,99982.91
2023-01-13T19:04:19.678Z,99986.28
2023-01-13T19:06:51.303Z,99995.75
2023-01-13T19:09:20.488Z,100000.28
2023-01-13T19:11:48.158Z,100006.75
2023-01-13T19:14:34.127Z,100005.53
2023-01-13T19:17:02.665Z,100015.88
2023-01-13T19:19:30.348Z,100011.19
2023-01-13T19:21:58.281Z,100009.44
2023-01-13T19:24:26.432Z,100012.31
2023-01-13T19:26:54.448Z,100025.03
2023-01-13T19:29:23.432Z,100030.72
2023-01-13T19:31:51.245Z,100029.56
2023-01-13T19:34:19.089Z,100042.91
2023-01-13T19:36:47.059Z,100046.31
2023-01-13T19:39:14.959Z,100045.84
2023-01-13T19:42:02.638Z,100050.75
2023-01-13T19:44:49.276Z,100046.16
2023-01-13T19:47:18.245Z,100063.47
2023-01-13T19:49:46.028Z,100070.72
2023-01-13T19:52:13.972Z,100072.69
2023-01-13T19:54:41.631Z,100078.38
2023-01-13T19:57:09.243Z,100067.16
2023-01-13T19:59:40.881Z,100068.63
2023-01-13T20:02:15.753Z,100067.88
2023-01-13T20:04:45.063Z,100067.22
2023-01-13T20:07:14.514Z,100073.66
2023-01-13T20:09:43.778Z,100079.66
2023-01-13T20:12:12.703Z,100074.03
2023-01-13T20:14:42.972Z,100080.72
2023-01-13T20:17:11.570Z,100083.00
2023-01-13T20:19:39.480Z,100089.91
2023-01-13T20:22:07.925Z,100088.09
2023-01-13T20:24:36.149Z,100089.38
2023-01-13T20:27:04.259Z,100094.91
2023-01-13T20:29:33.093Z,100097.63
2023-01-13T20:32:02.336Z,100093.94
2023-01-13T20:34:30.074Z,100105.41
2023-01-13T20:36:57.766Z,100100.69
2023-01-13T20:39:27.198Z,100116.41
2023-01-13T20:42:12.801Z,100109.09
2023-01-13T20:44:42.721Z,100108.78
2023-01-13T20:47:12.622Z,100107.06
2023-01-13T20:49:42.403Z,100114.19
2023-01-13T20:52:10.600Z,100114.97
2023-01-13T20:54:39.047Z,100110.63
2023-01-13T20:57:09.597Z,100119.47
2023-01-13T20:59:37.932Z,100125.47
2023-01-13T21:02:07.332Z,100121.78
2023-01-13T21:04:36.261Z,100127.63
2023-01-13T21:07:03.913Z,100133.84
2023-01-13T21:09:32.199Z,100135.56
2023-01-13T21:12:17.585Z,100123.03
2023-01-13T21:15:02.992Z,100131.75
2023-01-13T21:17:48.759Z,100128.25
2023-01-13T21:20:18.941Z,100132.28
2023-01-13T21:22:49.014Z,100140.59
2023-01-13T21:25:18.367Z,100147.50
2023-01-13T21:27:46.049Z,100163.84
2023-01-13T21:30:15.276Z,100164.19
2023-01-13T21:32:45.424Z,100164.28
2023-01-13T21:35:14.370Z,100161.50
2023-01-13T21:37:44.906Z,100163.69
2023-01-13T21:40:14.942Z,100170.22
2023-01-13T21:43:00.095Z,100161.97
2023-01-13T21:45:42.829Z,100168.91
2023-01-13T21:48:12.690Z,100178.09
2023-01-13T21:50:43.057Z,100178.31
2023-01-13T21:53:11.978Z,100175.00
2023-01-13T21:55:39.545Z,100191.81
2023-01-13T21:58:12.157Z,100189.56
2023-01-13T22:00:41.062Z,100201.63
2023-01-13T22:03:10.220Z,100190.75
2023-01-13T22:05:38.229Z,100195.94
2023-01-13T22:08:06.983Z,100204.03
2023-01-13T22:10:36.346Z,100209.06
2023-01-13T22:13:24.533Z,100208.25
2023-01-13T22:15:52.163Z,100203.91
2023-01-13T22:18:19.841Z,100205.97
2023-01-13T22:20:48.648Z,100203.00
2023-01-13T22:23:16.215Z,100212.31
2023-01-13T22:25:45.182Z,100211.66
2023-01-13T22:28:15.899Z,100214.88
2023-01-13T22:30:45.255Z,100220.53
2023-01-13T22:33:15.204Z,100221.38
2023-01-13T22:35:43.256Z,100225.06
2023-01-13T22:38:12.095Z,100235.56
2023-01-13T22:40:39.668Z,100234.72
2023-01-13T22:43:10.358Z,100238.34
2023-01-13T22:45:39.102Z,100244.69
2023-01-13T22:48:07.031Z,100250.50
2023-01-13T22:50:34.749Z,100230.81
2023-01-13T22:53:02.333Z,100241.03
2023-01-13T22:55:30.201Z,100245.88
2023-01-13T22:57:57.767Z,100244.22
2023-01-13T23:00:26.708Z,100250.03
2023-01-13T23:02:54.252Z,100254.88
2023-01-13T23:05:21.976Z,100253.16
2023-01-13T23:07:49.504Z,100262.16
2023-01-13T23:10:17.867Z,100264.19
2023-01-13T23:12:45.732Z,100272.47
2023-01-13T23:15:15.785Z,100270.66
2023-01-13T23:17:44.701Z,100276.50
2023-01-13T23:20:15.149Z,100266.84
2023-01-13T23:22:42.856Z,100257.69
2023-01-13T23:25:11.443Z,100269.19
2023-01-13T23:27:39.395Z,100274.88
2023-01-13T23:30:10.478Z,100269.69
2023-01-13T23:32:39.581Z,100277.38
2023-01-13T23:35:09.632Z,100277.19
2023-01-13T23:37:37.205Z,100273.69
2023-01-13T23:40:05.531Z,100276.88
2023-01-13T23:42:33.340Z,100284.22
2023-01-13T23:45:00.982Z,100273.50
2023-01-13T23:47:28.810Z,100272.84
2023-01-13T23:49:56.633Z,100280.00
2023-01-13T23:52:25.569Z,100279.34
2023-01-13T23:54:55.068Z,100277.19
2023-01-13T23:57:22.660Z,100282.22
2023-01-13T23:59:50.386Z,100274.03
